Time;durP1;ratioP1;P1;durP2;ratioP2;P2;SDS_P1;SDS_P2;PMS_P1;PMS_P2;Temp;Humidity;BMP_temperature;BMP_pressure;BME280_temperature;BME280_humidity;BME280_pressure;Samples;Min_cycle;Max_cycle;Signal;HPM_P1;HPM_P2
2022/12/13 00:01:13;;;;;;;55.03;25.47;;;;;;;-6.18;92.28;101493.22;5008859;28;20264;-70
2022/12/13 00:03:38;;;;;;;47.60;24.77;;;;;;;-6.16;92.43;101486.75;5006514;28;20286;-68
2022/12/13 00:06:05;;;;;;;55.10;25.50;;;;;;;-6.15;92.23;101494.38;5006921;28;20968;-70
2022/12/13 00:08:31;;;;;;;49.57;24.13;;;;;;;-6.13;92.34;101492.03;5007419;28;20198;-70
2022/12/13 00:11:01;;;;;;;53.77;25.03;;;;;;;-6.14;92.24;101485.28;5009117;28;20807;-70
2022/12/13 00:13:27;;;;;;;53.77;24.80;;;;;;;-6.16;93.04;101486.75;5003552;28;20196;-71
2022/12/13 00:16:04;;;;;;;56.17;26.37;;;;;;;-6.16;92.87;101490.13;5008123;28;20445;-69
2022/12/13 00:18:30;;;;;;;55.60;23.90;;;;;;;-6.18;92.53;101483.25;5008011;28;20813;-69
2022/12/13 00:20:55;;;;;;;52.43;24.37;;;;;;;-6.17;93.35;101480.03;5007481;28;20473;-69
2022/12/13 00:23:21;;;;;;;49.13;23.40;;;;;;;-6.18;93.36;101474.16;5005846;28;20195;-68
2022/12/13 00:25:47;;;;;;;48.93;24.47;;;;;;;-6.21;92.73;101471.34;5005196;28;20216;-70
2022/12/13 00:28:13;;;;;;;48.93;24.17;;;;;;;-6.21;93.38;101468.00;5007266;28;20325;-68
2022/12/13 00:30:39;;;;;;;51.60;24.17;;;;;;;-6.29;93.10;101469.78;5004651;28;20194;-71
2022/12/13 00:33:05;;;;;;;49.57;23.60;;;;;;;-6.31;92.94;101477.84;4998993;28;20484;-69
2022/12/13 00:35:31;;;;;;;56.17;25.73;;;;;;;-6.33;92.64;101477.69;5008798;28;20719;-69
2022/12/13 00:37:57;;;;;;;52.53;24.63;;;;;;;-6.37;92.27;101480.63;5005256;28;20453;-70
2022/12/13 00:40:22;;;;;;;52.63;24.73;;;;;;;-6.38;92.66;101476.38;5007807;28;20457;-70
2022/12/13 00:42:48;;;;;;;51.37;24.67;;;;;;;-6.38;92.51;101483.84;5007311;28;20355;-70
2022/12/13 00:45:13;;;;;;;51.97;24.80;;;;;;;-6.37;92.28;101482.22;5006067;28;20281;-70
2022/12/13 00:47:39;;;;;;;51.63;25.23;;;;;;;-6.37;91.79;101480.63;5010142;28;20206;-68
2022/12/13 00:50:05;;;;;;;46.23;23.83;;;;;;;-6.40;91.79;101467.00;5003959;28;20464;-68
2022/12/13 00:52:33;;;;;;;53.13;23.67;;;;;;;-6.43;91.89;101466.72;5006730;28;20594;-68
2022/12/13 00:54:58;;;;;;;50.73;23.97;;;;;;;-6.45;91.85;101461.56;5021535;28;20539;-68
2022/12/13 00:57:24;;;;;;;49.43;23.70;;;;;;;-6.44;91.76;101455.00;5006512;28;20974;-69
2022/12/13 00:59:49;;;;;;;47.20;23.10;;;;;;;-6.47;91.35;101468.03;5002011;28;20283;-68
2022/12/13 01:02:15;;;;;;;47.73;22.87;;;;;;;-6.51;91.43;101465.09;5005696;28;20793;-70
2022/12/13 01:04:41;;;;;;;47.70;23.47;;;;;;;-6.57;91.01;101467.00;5003113;28;20222;-69
2022/12/13 01:07:07;;;;;;;46.07;22.67;;;;;;;-6.62;91.47;101459.13;5007565;28;20195;-68
2022/12/13 01:09:32;;;;;;;44.93;23.40;;;;;;;-6.60;91.34;101466.69;5004016;28;20197;-68
2022/12/13 01:12:00;;;;;;;52.33;23.47;;;;;;;-6.59;90.80;101466.84;5003092;28;20231;-69
2022/12/13 01:14:27;;;;;;;43.70;22.60;;;;;;;-6.60;90.77;101470.09;5006598;28;20221;-69
2022/12/13 01:16:55;;;;;;;48.20;22.57;;;;;;;-6.61;90.99;101458.38;5002775;28;20469;-68
2022/12/13 01:19:26;;;;;;;45.83;22.30;;;;;;;-6.61;90.65;101462.47;5008224;28;20590;-68
2022/12/13 01:21:58;;;;;;;44.60;21.80;;;;;;;-6.61;90.82;101463.34;5012803;28;20472;-68
2022/12/13 01:24:24;;;;;;;52.50;22.23;;;;;;;-6.56;91.34;101464.66;5005972;28;20481;-68
2022/12/13 01:26:51;;;;;;;47.40;22.77;;;;;;;-6.53;91.60;101459.09;5003384;28;20521;-68
2022/12/13 01:29:18;;;;;;;48.20;22.37;;;;;;;-6.56;91.96;101456.31;5002544;28;20245;-70
2022/12/13 01:31:44;;;;;;;50.73;21.73;;;;;;;-6.56;91.57;101456.31;5004159;28;20470;-70
2022/12/13 01:34:15;;;;;;;45.83;21.73;;;;;;;-6.62;91.63;101454.13;5006471;28;20472;-70
2022/12/13 01:36:43;;;;;;;48.53;22.03;;;;;;;-6.63;91.57;101447.38;5005860;28;20556;-70
2022/12/13 01:39:11;;;;;;;42.77;21.53;;;;;;;-6.68;91.38;101452.66;5004405;28;20465;-68
2022/12/13 01:41:36;;;;;;;50.00;20.67;;;;;;;-6.70;91.79;101459.09;5001973;28;20485;-70
2022/12/13 01:44:06;;;;;;;42.47;20.57;;;;;;;-6.67;92.01;101451.94;5005712;28;20488;-70
2022/12/13 01:46:35;;;;;;;50.47;20.57;;;;;;;-6.71;91.32;101458.22;5005282;28;20671;-70
2022/12/13 01:49:06;;;;;;;51.67;22.80;;;;;;;-6.71;91.76;101449.88;5003182;28;20457;-68
2022/12/13 01:51:38;;;;;;;50.57;22.57;;;;;;;-6.72;91.32;101460.56;5004229;28;20477;-70
2022/12/13 01:54:07;;;;;;;47.43;22.03;;;;;;;-6.73;91.38;101447.22;5004136;28;20467;-70
2022/12/13 01:56:38;;;;;;;49.10;21.93;;;;;;;-6.69;92.03;101448.41;5002180;28;20454;-70
2022/12/13 01:59:05;;;;;;;42.67;20.97;;;;;;;-6.78;92.11;101445.91;5007665;28;20488;-70
2022/12/13 02:01:31;;;;;;;47.30;22.27;;;;;;;-6.76;91.55;101442.00;5004244;28;20492;-68
2022/12/13 02:03:56;;;;;;;46.13;21.90;;;;;;;-6.77;91.28;101444.31;5003099;28;20454;-70
2022/12/13 02:06:29;;;;;;;44.03;21.43;;;;;;;-6.76;91.91;101449.44;5004939;28;20191;-70
2022/12/13 02:08:55;;;;;;;44.50;23.30;;;;;;;-6.75;91.85;101442.84;5003572;28;20243;-70
2022/12/13 02:11:21;;;;;;;47.10;22.27;;;;;;;-6.71;91.93;101444.91;5000746;28;20476;-70
2022/12/13 02:13:47;;;;;;;54.00;23.47;;;;;;;-6.70;91.72;101451.63;5005729;28;20485;-68
2022/12/13 02:16:12;;;;;;;46.93;22.27;;;;;;;-6.72;91.82;101450.63;5001910;28;20489;-68
2022/12/13 02:19:01;;;;;;;47.37;22.57;;;;;;;-6.72;91.58;101448.13;5011948;28;20199;-68
2022/12/13 02:21:36;;;;;;;42.23;20.83;;;;;;;-6.77;91.89;101444.31;4995738;28;20233;-68
2022/12/13 02:24:25;;;;;;;52.13;22.67;;;;;;;-6.78;91.29;101440.09;5002805;28;20464;-70
2022/12/13 02:27:14;;;;;;;48.10;20.70;;;;;;;-6.83;91.83;101431.28;5003353;28;20549;-68
2022/12/13 02:29:49;;;;;;;46.47;22.50;;;;;;;-6.85;91.51;101431.16;5004129;28;20449;-68
2022/12/13 02:32:56;;;;;;;50.00;22.60;;;;;;;-6.82;92.11;101431.41;5023140;28;20591;-70
2022/12/13 02:35:31;;;;;;;47.67;20.73;;;;;;;-6.86;91.44;101431.84;4993707;28;20967;-68
2022/12/13 02:38:20;;;;;;;53.10;24.43;;;;;;;-6.86;91.46;101424.38;5005354;28;20811;-68
2022/12/13 02:40:54;;;;;;;53.33;23.73;;;;;;;-6.84;91.96;101422.94;5001947;28;20485;-70
2022/12/13 02:43:25;;;;;;;56.13;23.97;;;;;;;-6.79;92.03;101421.78;4999238;28;20453;-70
2022/12/13 02:45:54;;;;;;;48.80;22.30;;;;;;;-6.80;91.98;101410.06;5003167;28;20981;-68
2022/12/13 02:48:27;;;;;;;51.50;24.00;;;;;;;-6.85;91.56;101410.34;5004377;28;21214;-70
2022/12/13 02:50:54;;;;;;;56.13;24.43;;;;;;;-6.93;91.67;101416.19;5004908;28;21222;-68
2022/12/13 02:53:21;;;;;;;51.77;23.03;;;;;;;-6.92;91.58;101412.97;4999776;28;20449;-68
2022/12/13 02:55:47;;;;;;;49.90;23.50;;;;;;;-6.96;91.46;101421.75;5010752;28;20450;-68
2022/12/13 02:58:15;;;;;;;66.10;27.00;;;;;;;-6.97;91.71;101415.03;5003211;28;20461;-70
2022/12/13 03:00:57;;;;;;;69.27;27.10;;;;;;;-6.99;91.34;101423.09;5000909;28;20254;-70
2022/12/13 03:03:37;;;;;;;53.43;25.30;;;;;;;-7.00;91.09;101418.84;5003583;28;20449;-70
2022/12/13 03:06:29;;;;;;;58.50;25.70;;;;;;;-7.03;90.55;101414.44;5003368;28;20452;-71
2022/12/13 03:09:27;;;;;;;56.87;24.87;;;;;;;-7.06;90.53;101419.13;4999285;28;20449;-68
2022/12/13 03:15:05;;;;;;;62.30;25.63;;;;;;;-7.10;90.19;101421.19;5003798;28;20535;-70
2022/12/13 03:17:39;;;;;;;60.43;26.70;;;;;;;-7.12;90.14;101420.13;5003961;28;20488;-68
2022/12/13 03:20:07;;;;;;;59.20;27.20;;;;;;;-7.11;90.69;101425.25;5003271;28;20568;-70
2022/12/13 03:22:33;;;;;;;60.53;25.00;;;;;;;-7.14;90.55;101419.13;5004791;28;20484;-70
2022/12/13 03:24:59;;;;;;;61.03;26.87;;;;;;;-7.16;90.50;101421.44;5008687;28;20446;-68
2022/12/13 03:27:24;;;;;;;58.33;25.60;;;;;;;-7.14;90.42;101419.13;5008553;28;20496;-68
2022/12/13 03:29:50;;;;;;;59.07;25.90;;;;;;;-7.16;90.59;101420.56;5005298;28;20386;-68
2022/12/13 03:32:15;;;;;;;57.57;25.83;;;;;;;-7.17;90.49;101412.25;5010673;28;20222;-69
2022/12/13 03:34:41;;;;;;;55.50;24.60;;;;;;;-7.18;90.51;101404.63;5003686;28;20198;-68
2022/12/13 03:37:06;;;;;;;60.93;26.03;;;;;;;-7.22;90.51;101410.03;5009913;28;20202;-68
2022/12/13 03:39:32;;;;;;;53.80;25.07;;;;;;;-7.23;90.22;101409.13;5008702;28;20288;-68
2022/12/13 03:41:57;;;;;;;49.47;23.63;;;;;;;-7.22;90.29;101408.44;5010302;28;20215;-68
2022/12/13 03:44:23;;;;;;;53.00;23.97;;;;;;;-7.21;90.12;101410.19;5009065;28;20224;-70
2022/12/13 03:46:48;;;;;;;52.73;25.73;;;;;;;-7.24;90.35;101409.03;5005367;28;20681;-68
2022/12/13 03:49:13;;;;;;;48.40;23.53;;;;;;;-7.27;90.24;101411.19;5005648;28;20214;-68
2022/12/13 03:51:39;;;;;;;56.73;24.33;;;;;;;-7.27;90.46;101411.19;5006193;28;20206;-68
2022/12/13 03:54:05;;;;;;;52.30;22.90;;;;;;;-7.28;90.54;101411.94;5001621;28;20214;-68
2022/12/13 03:56:30;;;;;;;46.53;23.57;;;;;;;-7.31;90.23;101406.66;5003323;28;20203;-68
2022/12/13 03:58:55;;;;;;;59.90;25.13;;;;;;;-7.29;90.55;101403.59;5005305;28;20312;-68
2022/12/13 04:01:22;;;;;;;48.53;23.23;;;;;;;-7.28;89.86;101397.88;5006604;28;20222;-68
2022/12/13 04:03:47;;;;;;;55.20;23.47;;;;;;;-7.27;90.16;101393.78;5004867;28;20226;-68
2022/12/13 04:06:13;;;;;;;52.83;24.10;;;;;;;-7.25;90.32;101395.69;5006017;28;20452;-68
2022/12/13 04:08:39;;;;;;;52.70;24.07;;;;;;;-7.21;90.62;101394.38;5004181;28;20221;-68
2022/12/13 04:13:54;;;;;;;52.27;24.37;;;;;;;-7.22;91.27;101397.59;5003955;28;20205;-68
2022/12/13 04:16:20;;;;;;;57.43;25.83;;;;;;;-7.24;91.49;101394.09;5001054;28;20941;-68
2022/12/13 04:18:46;;;;;;;50.03;24.97;;;;;;;-7.22;91.51;101383.56;5004829;28;20448;-68
2022/12/13 04:21:12;;;;;;;53.77;26.03;;;;;;;-7.20;91.02;101387.06;5004043;28;20975;-68
2022/12/13 04:23:37;;;;;;;54.50;24.70;;;;;;;-7.17;91.19;101391.47;5004579;28;20467;-70
2022/12/13 04:26:03;;;;;;;53.43;25.37;;;;;;;-7.16;91.10;101384.16;5006341;28;20194;-68
2022/12/13 04:28:28;;;;;;;57.97;26.00;;;;;;;-7.11;92.06;101384.59;5000124;28;20187;-68
2022/12/13 04:30:53;;;;;;;56.77;25.43;;;;;;;-7.05;92.25;101385.19;5004880;28;20179;-68
2022/12/13 04:33:21;;;;;;;56.23;25.13;;;;;;;-7.01;92.49;101392.22;5003904;28;20683;-68
2022/12/13 04:35:47;;;;;;;54.97;24.80;;;;;;;-6.97;92.52;101384.28;5001270;28;20661;-69
2022/12/13 04:38:12;;;;;;;59.63;27.23;;;;;;;-6.93;92.58;101396.28;5006080;28;20464;-68
2022/12/13 04:40:38;;;;;;;54.27;26.13;;;;;;;-6.88;92.44;101396.00;4999779;28;20292;-68
2022/12/13 04:43:03;;;;;;;59.60;25.03;;;;;;;-6.82;92.57;101390.75;4998980;28;20219;-69
2022/12/13 04:45:30;;;;;;;57.10;25.10;;;;;;;-6.74;92.70;101384.88;5005335;28;20209;-69
2022/12/13 04:47:55;;;;;;;54.33;25.13;;;;;;;-6.69;93.54;101388.66;4998583;28;20449;-68
2022/12/13 04:50:21;;;;;;;56.03;25.03;;;;;;;-6.65;94.34;101390.72;5002602;28;20226;-70
2022/12/13 04:52:46;;;;;;;62.93;26.07;;;;;;;-6.62;94.14;101389.44;5005843;28;20222;-70
2022/12/13 04:55:12;;;;;;;48.57;24.30;;;;;;;-6.67;94.73;101385.63;5003285;28;20195;-68
2022/12/13 04:57:38;;;;;;;55.93;25.00;;;;;;;-6.67;95.16;101384.75;5004473;28;20296;-70
2022/12/13 05:00:05;;;;;;;54.80;25.50;;;;;;;-6.66;95.34;101384.00;5000557;28;20206;-68
2022/12/13 05:02:30;;;;;;;53.43;25.17;;;;;;;-6.61;95.91;101383.72;5007784;28;20222;-70
2022/12/13 05:04:56;;;;;;;53.80;26.53;;;;;;;-6.60;95.90;101379.59;5000116;28;20485;-71
2022/12/13 05:07:22;;;;;;;59.73;26.70;;;;;;;-6.57;95.86;101395.72;5004074;28;20463;-71
2022/12/13 05:09:48;;;;;;;55.40;23.63;;;;;;;-6.54;95.69;101395.13;5016089;28;20684;-69
2022/12/13 05:12:13;;;;;;;54.53;25.07;;;;;;;-6.47;95.59;101395.84;5004634;28;20499;-68
2022/12/13 05:14:39;;;;;;;54.70;25.90;;;;;;;-6.43;95.55;101390.41;5001922;28;20330;-68
2022/12/13 05:17:04;;;;;;;52.83;24.53;;;;;;;-6.38;95.73;101393.31;5004196;28;20348;-68
2022/12/13 05:19:30;;;;;;;49.73;23.63;;;;;;;-6.34;95.69;101385.41;5003293;28;20296;-69
2022/12/13 05:21:55;;;;;;;52.50;25.00;;;;;;;-6.26;95.26;101382.03;5005062;28;20221;-68
2022/12/13 05:24:21;;;;;;;55.00;23.83;;;;;;;-6.19;95.42;101370.28;5000582;28;20864;-69
2022/12/13 05:26:46;;;;;;;49.23;23.03;;;;;;;-6.10;96.03;101378.59;5000718;28;20670;-69
2022/12/13 05:29:11;;;;;;;45.53;21.10;;;;;;;-6.02;95.76;101367.75;5002249;28;20202;-68
2022/12/13 05:31:37;;;;;;;51.57;22.43;;;;;;;-6.03;96.45;101365.09;4998310;28;20207;-68
2022/12/13 05:34:03;;;;;;;55.87;23.47;;;;;;;-6.02;96.40;101365.25;5003847;28;20324;-68
2022/12/13 05:36:28;;;;;;;45.20;21.67;;;;;;;-5.99;96.07;101359.66;5003240;28;20194;-68
2022/12/13 05:38:54;;;;;;;52.93;21.93;;;;;;;-5.96;96.32;101354.94;5005741;28;20194;-68
2022/12/13 05:41:25;;;;;;;52.37;23.17;;;;;;;-5.92;95.93;101355.38;5001038;28;20482;-68
2022/12/13 05:43:51;;;;;;;51.43;23.80;;;;;;;-5.86;96.38;101365.00;4997733;28;20259;-68
2022/12/13 05:46:17;;;;;;;52.57;23.23;;;;;;;-5.80;96.05;101368.09;5002353;28;20592;-68
2022/12/13 05:48:43;;;;;;;51.67;22.07;;;;;;;-5.76;95.72;101365.09;5003771;28;20640;-68
2022/12/13 05:51:09;;;;;;;53.07;23.07;;;;;;;-5.72;95.68;101375.47;5000183;28;20211;-69
2022/12/13 05:53:35;;;;;;;53.57;22.20;;;;;;;-5.67;95.76;101371.78;5003058;28;20233;-69
2022/12/13 05:56:01;;;;;;;50.47;23.40;;;;;;;-5.61;95.76;101368.97;5002544;28;20900;-71
2022/12/13 05:58:27;;;;;;;55.03;24.30;;;;;;;-5.61;95.75;101369.81;5004876;28;20253;-69
2022/12/13 06:00:52;;;;;;;53.90;25.23;;;;;;;-5.57;96.35;101369.38;5004659;28;20477;-68
2022/12/13 06:03:18;;;;;;;57.87;24.43;;;;;;;-5.52;96.05;101372.31;5008214;28;20596;-68
2022/12/13 06:05:44;;;;;;;57.00;25.37;;;;;;;-5.50;96.22;101373.31;5009109;28;20298;-68
2022/12/13 06:08:09;;;;;;;51.00;23.47;;;;;;;-5.47;96.03;101374.47;5004480;28;20198;-68
2022/12/13 06:10:35;;;;;;;54.87;23.63;;;;;;;-5.45;96.04;101369.59;4991913;28;20202;-69
2022/12/13 06:13:04;;;;;;;54.80;25.17;;;;;;;-5.39;96.43;101375.16;5004028;28;21075;-71
2022/12/13 06:15:30;;;;;;;53.53;24.30;;;;;;;-5.38;96.24;101365.28;5004817;28;20199;-70
2022/12/13 06:17:58;;;;;;;56.23;24.33;;;;;;;-5.34;97.26;101366.47;5004573;28;20469;-70
2022/12/13 06:20:24;;;;;;;55.90;23.87;;;;;;;-5.27;96.44;101366.25;5001627;28;20450;-68
2022/12/13 06:22:49;;;;;;;55.33;24.17;;;;;;;-5.25;97.25;101364.78;5012630;28;20527;-68
2022/12/13 06:25:14;;;;;;;55.17;24.90;;;;;;;-5.22;96.99;101365.94;4998462;28;20677;-68
2022/12/13 06:27:40;;;;;;;55.27;25.03;;;;;;;-5.22;96.38;101365.03;5001705;28;20199;-68
2022/12/13 06:30:06;;;;;;;60.63;26.93;;;;;;;-5.21;96.68;101366.81;4998286;28;20198;-68
2022/12/13 06:32:31;;;;;;;58.87;25.83;;;;;;;-5.19;96.56;101367.81;5002670;28;20225;-68
2022/12/13 06:34:57;;;;;;;55.17;24.07;;;;;;;-5.16;96.44;101368.97;4996662;28;20203;-68
2022/12/13 06:37:22;;;;;;;56.43;23.80;;;;;;;-5.10;96.68;101362.03;5008315;28;20240;-68
2022/12/13 06:39:48;;;;;;;54.90;23.77;;;;;;;-5.10;96.75;101364.53;4999285;28;20281;-69
2022/12/13 06:42:16;;;;;;;52.70;24.00;;;;;;;-5.06;96.73;101371.53;5000535;28;20230;-69
2022/12/13 06:44:42;;;;;;;51.97;22.73;;;;;;;-5.06;96.94;101368.16;5001757;28;20671;-69
2022/12/13 06:47:07;;;;;;;46.57;22.20;;;;;;;-5.01;96.28;101374.44;5000076;28;20446;-69
2022/12/13 06:49:33;;;;;;;48.47;23.90;;;;;;;-4.98;96.59;101368.09;5009293;28;20195;-69
2022/12/13 06:51:59;;;;;;;54.13;23.30;;;;;;;-5.00;96.53;101368.69;5003634;28;20207;-69
2022/12/13 06:54:24;;;;;;;47.93;21.03;;;;;;;-5.00;96.45;101366.22;4999292;28;20290;-69
2022/12/13 06:56:49;;;;;;;54.67;23.57;;;;;;;-4.97;97.15;101367.34;5017550;28;20195;-69
2022/12/13 06:59:15;;;;;;;53.10;23.53;;;;;;;-4.98;96.46;101365.59;5003646;28;20297;-69
2022/12/13 07:01:40;;;;;;;50.50;23.07;;;;;;;-4.96;96.41;101376.63;4999192;28;20219;-69
2022/12/13 07:04:08;;;;;;;53.20;23.57;;;;;;;-4.99;96.39;101376.34;5004092;28;20253;-69
2022/12/13 07:06:33;;;;;;;48.33;23.07;;;;;;;-4.99;96.50;101378.81;5003762;28;20257;-68
2022/12/13 07:08:59;;;;;;;53.97;23.97;;;;;;;-4.96;95.97;101381.59;5004478;28;20924;-68
2022/12/13 07:11:29;;;;;;;49.67;23.13;;;;;;;-4.92;96.75;101378.59;4999425;28;20254;-68
2022/12/13 07:13:55;;;;;;;49.90;24.13;;;;;;;-4.88;96.44;101380.63;5000472;28;20295;-68
2022/12/13 07:16:22;;;;;;;51.17;22.93;;;;;;;-4.87;96.69;101379.91;4998895;28;20859;-68
2022/12/13 07:18:56;;;;;;;45.77;21.53;;;;;;;-4.80;96.43;101383.78;4999407;28;20664;-70
2022/12/13 07:21:22;;;;;;;48.90;22.57;;;;;;;-4.83;96.72;101376.06;5006513;28;20481;-70
2022/12/13 07:23:49;;;;;;;46.57;22.33;;;;;;;-4.81;95.94;101385.44;5007233;28;20471;-71
2022/12/13 07:26:14;;;;;;;52.53;22.80;;;;;;;-4.77;95.92;101381.59;5007041;28;20198;-70
2022/12/13 07:28:40;;;;;;;52.63;21.97;;;;;;;-4.82;96.01;101387.78;5007102;28;20820;-70
2022/12/13 07:31:08;;;;;;;52.33;22.17;;;;;;;-4.88;95.57;101388.13;5004318;28;20857;-68
2022/12/13 07:33:34;;;;;;;47.63;22.27;;;;;;;-4.90;96.00;101392.13;5002989;28;20202;-70
2022/12/13 07:36:10;;;;;;;54.87;23.60;;;;;;;-4.85;95.95;101392.50;4997605;28;20956;-70
2022/12/13 07:38:35;;;;;;;48.70;21.73;;;;;;;-4.80;95.13;101396.28;4999735;28;20440;-70
2022/12/13 07:41:01;;;;;;;48.93;21.13;;;;;;;-4.76;95.47;101395.81;5000719;28;21007;-69
2022/12/13 07:43:28;;;;;;;49.10;22.63;;;;;;;-4.79;95.61;101391.44;5000787;28;20199;-69
2022/12/13 07:45:53;;;;;;;50.23;23.27;;;;;;;-4.81;95.03;101394.53;4997311;28;20195;-68
2022/12/13 07:48:19;;;;;;;54.20;22.27;;;;;;;-4.85;95.09;101395.00;5000955;28;20441;-69
2022/12/13 07:50:45;;;;;;;46.53;20.93;;;;;;;-4.87;94.52;101392.41;4998347;28;20191;-68
2022/12/13 07:53:11;;;;;;;47.07;22.37;;;;;;;-4.91;94.83;101390.38;5001978;28;20222;-68
2022/12/13 07:55:37;;;;;;;48.43;22.73;;;;;;;-4.91;95.01;101390.38;4998358;28;20585;-68
2022/12/13 07:58:04;;;;;;;47.00;22.47;;;;;;;-4.95;95.03;101395.81;5004440;28;20532;-68
2022/12/13 08:00:30;;;;;;;51.00;22.50;;;;;;;-4.95;95.04;101399.94;4998547;28;20187;-68
2022/12/13 08:02:56;;;;;;;49.17;22.07;;;;;;;-4.92;94.71;101395.22;5003581;28;21322;-68
2022/12/13 08:05:21;;;;;;;52.17;22.63;;;;;;;-4.94;94.28;101394.19;4998115;28;20187;-68
2022/12/13 08:07:47;;;;;;;51.27;23.30;;;;;;;-4.90;94.43;101401.22;5000025;28;20195;-69
2022/12/13 08:10:12;;;;;;;52.70;24.10;;;;;;;-4.78;94.66;101405.66;5007638;28;20222;-68
2022/12/13 08:12:38;;;;;;;48.97;22.13;;;;;;;-4.81;94.32;101402.03;5006211;28;20596;-68
2022/12/13 08:15:04;;;;;;;55.87;22.67;;;;;;;-4.81;94.17;101407.00;5003735;28;20263;-68
2022/12/13 08:17:29;;;;;;;50.83;22.87;;;;;;;-4.86;93.42;101399.13;5004475;28;20646;-68
2022/12/13 08:19:56;;;;;;;50.53;21.87;;;;;;;-4.81;93.47;101412.91;4999089;28;20203;-67
2022/12/13 08:22:22;;;;;;;51.33;23.30;;;;;;;-4.81;93.40;101409.50;5006454;28;20481;-68
2022/12/13 08:24:47;;;;;;;48.70;22.80;;;;;;;-4.75;93.46;101405.94;5000441;28;20207;-68
2022/12/13 08:27:13;;;;;;;49.67;21.67;;;;;;;-4.67;92.83;101409.09;5003769;28;20214;-67
2022/12/13 08:29:38;;;;;;;52.07;22.33;;;;;;;-4.59;92.56;101404.06;4992199;28;20230;-69
2022/12/13 08:32:07;;;;;;;50.73;22.10;;;;;;;-4.46;91.96;101406.00;5000088;28;20242;-70
2022/12/13 08:34:32;;;;;;;47.87;22.90;;;;;;;-4.38;92.22;101400.91;5004742;28;20632;-70
2022/12/13 08:36:58;;;;;;;45.00;22.03;;;;;;;-4.20;91.16;101394.09;5018667;28;20530;-70
2022/12/13 08:39:24;;;;;;;46.03;22.83;;;;;;;-4.08;90.89;101402.66;5004585;28;20293;-70
2022/12/13 08:41:49;;;;;;;44.70;21.90;;;;;;;-4.01;91.19;101403.28;5015031;28;20673;-70
2022/12/13 08:44:15;;;;;;;45.00;21.87;;;;;;;-3.92;91.09;101399.06;5002107;28;20278;-71
2022/12/13 08:46:40;;;;;;;48.10;23.57;;;;;;;-3.81;91.61;101398.38;4999641;28;20563;-71
2022/12/13 08:49:06;;;;;;;48.20;22.17;;;;;;;-3.76;91.33;101397.13;5001297;28;20198;-71
2022/12/13 08:51:31;;;;;;;45.77;22.27;;;;;;;-3.62;91.33;101390.75;5006063;28;20218;-71
2022/12/13 08:53:56;;;;;;;49.27;21.77;;;;;;;-3.52;91.15;101386.66;5006560;28;20275;-69
2022/12/13 08:56:22;;;;;;;41.67;21.53;;;;;;;-3.49;91.42;101386.88;5009279;28;20206;-70
2022/12/13 08:58:50;;;;;;;45.40;22.80;;;;;;;-3.39;91.21;101378.53;4999464;28;20211;-70
2022/12/13 09:01:17;;;;;;;43.67;21.93;;;;;;;-3.35;91.61;101386.41;5002757;28;20307;-69
2022/12/13 09:03:43;;;;;;;42.83;21.43;;;;;;;-3.37;91.27;101382.00;5001507;28;20532;-70
2022/12/13 09:06:13;;;;;;;41.60;22.43;;;;;;;-3.39;91.44;101378.53;5003884;28;20326;-70
2022/12/13 09:08:40;;;;;;;45.57;22.80;;;;;;;-3.41;92.02;101380.03;5002229;28;20234;-69
2022/12/13 09:11:07;;;;;;;45.73;21.97;;;;;;;-3.39;92.04;101386.94;5003441;28;20458;-70
2022/12/13 09:13:36;;;;;;;49.63;22.60;;;;;;;-3.42;92.36;101384.16;5010420;28;20449;-69
2022/12/13 09:16:25;;;;;;;49.33;24.90;;;;;;;-3.36;92.17;101387.16;4996811;28;20578;-70
2022/12/13 09:18:52;;;;;;;46.07;21.90;;;;;;;-3.28;92.43;101391.16;4997850;28;20489;-68
2022/12/13 09:21:18;;;;;;;47.67;24.20;;;;;;;-3.24;92.37;101388.16;5000074;28;20512;-70
2022/12/13 09:23:44;;;;;;;50.13;22.80;;;;;;;-3.26;92.72;101377.13;4998140;28;20545;-70
2022/12/13 09:26:15;;;;;;;46.27;23.20;;;;;;;-3.17;92.67;101380.38;5002222;28;20956;-71
2022/12/13 09:28:40;;;;;;;45.13;21.73;;;;;;;-2.90;92.99;101371.75;4999658;28;20970;-69
2022/12/13 09:31:17;;;;;;;49.00;22.07;;;;;;;-2.75;92.95;101372.97;5010090;28;20490;-68
2022/12/13 09:33:44;;;;;;;46.73;23.10;;;;;;;-2.83;92.78;101372.34;4978051;28;20346;-68
2022/12/13 09:36:18;;;;;;;47.40;22.93;;;;;;;-2.90;92.69;101374.25;5002246;28;20477;-68
2022/12/13 09:38:44;;;;;;;40.03;21.23;;;;;;;-2.76;93.32;101367.06;4998604;28;20549;-70
2022/12/13 09:41:10;;;;;;;45.10;21.00;;;;;;;-2.81;92.94;101372.50;4999050;28;21007;-71
2022/12/13 09:43:36;;;;;;;50.53;23.90;;;;;;;-2.67;92.80;101370.31;5001520;28;20204;-70
2022/12/13 09:46:07;;;;;;;47.37;23.03;;;;;;;-2.63;92.61;101366.41;4998393;28;20206;-70
2022/12/13 09:48:34;;;;;;;47.10;23.83;;;;;;;-2.47;92.09;101354.34;5004846;28;20442;-69
2022/12/13 09:51:00;;;;;;;48.33;22.90;;;;;;;-2.40;91.75;101356.56;4998348;28;20450;-69
2022/12/13 09:53:26;;;;;;;44.90;23.17;;;;;;;-2.39;91.09;101360.84;5000200;28;20469;-70
2022/12/13 09:55:52;;;;;;;44.33;23.17;;;;;;;-2.03;90.72;101356.13;4998627;28;20450;-69
2022/12/13 09:58:25;;;;;;;49.60;24.40;;;;;;;-1.74;89.48;101354.22;5000117;28;20200;-69
2022/12/13 10:00:54;;;;;;;46.97;22.93;;;;;;;-1.57;89.09;101353.81;5002032;28;20575;-70
2022/12/13 10:03:21;;;;;;;42.27;21.93;;;;;;;-1.43;88.62;101364.16;5002025;28;20875;-70
2022/12/13 10:05:55;;;;;;;46.80;23.40;;;;;;;-1.35;88.06;101363.09;5000520;28;20207;-70
2022/12/13 10:08:24;;;;;;;47.13;22.37;;;;;;;-0.95;86.98;101359.34;5000871;28;20645;-70
2022/12/13 10:10:51;;;;;;;39.50;20.80;;;;;;;-0.63;86.53;101355.00;4999881;28;20187;-71
2022/12/13 10:13:43;;;;;;;43.10;20.97;;;;;;;-0.58;85.16;101363.72;5002351;28;20187;-70
2022/12/13 10:16:26;;;;;;;39.43;20.00;;;;;;;-0.32;84.10;101368.97;4999233;28;20207;-71
2022/12/13 10:18:51;;;;;;;38.03;20.17;;;;;;;0.07;83.70;101356.63;4997316;28;20203;-71
2022/12/13 10:21:39;;;;;;;37.43;19.23;;;;;;;0.22;81.53;101366.09;5013365;28;20223;-71
2022/12/13 10:24:19;;;;;;;39.97;19.77;;;;;;;0.38;81.02;101349.50;4999907;28;20203;-71
2022/12/13 10:26:45;;;;;;;36.63;19.10;;;;;;;0.97;79.55;101351.81;4997811;28;20868;-70
2022/12/13 10:29:11;;;;;;;35.87;20.03;;;;;;;4.99;67.48;101327.16;5002909;28;20199;-71
2022/12/13 10:31:49;;;;;;;32.60;18.20;;;;;;;6.77;58.31;101314.28;5003080;28;20264;-71
2022/12/13 10:34:28;;;;;;;28.07;17.27;;;;;;;4.77;59.07;101329.44;4998922;28;20238;-70
2022/12/13 10:36:54;;;;;;;32.73;16.73;;;;;;;3.66;64.91;101333.66;5009860;28;20210;-70
2022/12/13 10:39:40;;;;;;;33.83;18.27;;;;;;;3.02;67.66;101334.28;5000808;28;20286;-70
2022/12/13 10:42:15;;;;;;;31.63;17.73;;;;;;;3.59;66.39;101334.13;4996675;28;20223;-70
2022/12/13 10:44:40;;;;;;;27.70;16.93;;;;;;;2.91;66.86;101326.88;4995559;28;20202;-71
2022/12/13 10:47:09;;;;;;;31.20;17.47;;;;;;;2.10;70.44;101324.53;5002501;28;20226;-71
2022/12/13 10:49:47;;;;;;;34.33;18.43;;;;;;;2.07;73.01;101324.38;5009103;28;20600;-70
2022/12/13 10:52:40;;;;;;;32.80;18.57;;;;;;;2.27;73.13;101318.84;5015011;28;20251;-70
2022/12/13 10:55:25;;;;;;;32.10;18.53;;;;;;;1.97;72.64;101314.50;4995108;28;20208;-70
2022/12/13 10:57:52;;;;;;;32.13;17.20;;;;;;;1.76;74.87;101320.75;4995452;28;20198;-70
2022/12/13 11:00:30;;;;;;;32.37;17.63;;;;;;;1.44;75.36;101322.94;4999892;28;20233;-70
2022/12/13 11:02:55;;;;;;;31.63;17.53;;;;;;;1.21;77.12;101325.66;4999228;28;20266;-71
2022/12/13 11:05:33;;;;;;;37.23;18.10;;;;;;;1.26;77.07;101322.66;5002114;28;20325;-71
2022/12/13 11:08:20;;;;;;;31.17;17.53;;;;;;;1.27;78.04;101323.50;4998382;28;20665;-71
2022/12/13 11:10:45;;;;;;;30.33;16.70;;;;;;;1.33;78.26;101313.84;4996629;28;20215;-71
2022/12/13 11:13:42;;;;;;;31.70;18.13;;;;;;;1.25;78.45;101317.50;4998791;28;20225;-71
2022/12/13 11:16:26;;;;;;;33.13;17.30;;;;;;;1.06;78.79;101312.94;5000059;28;20207;-71
2022/12/13 11:19:04;;;;;;;30.90;16.80;;;;;;;0.97;78.98;101309.84;5013641;28;20276;-71
2022/12/13 11:21:33;;;;;;;28.80;16.90;;;;;;;0.61;80.10;101315.00;5005120;28;20215;-71